sensor_id;sensor_type;location;lat;lon;timestamp;P1;durP1;ratioP1;P2;durP2;ratioP2
79438;SDS011;68889;48.232;10.110;2024-03-22T00:00:54;30.23;;;18.67;;
79438;SDS011;68889;48.232;10.110;2024-03-22T00:03:20;32.67;;;18.90;;
79438;SDS011;68889;48.232;10.110;2024-03-22T00:05:45;28.40;;;17.65;;
79438;SDS011;68889;48.232;10.110;2024-03-22T00:08:11;29.17;;;18.25;;
79438;SDS011;68889;48.232;10.110;2024-03-22T00:10:36;25.42;;;16.98;;
79438;SDS011;68889;48.232;10.110;2024-03-22T00:13:02;29.52;;;17.08;;
79438;SDS011;68889;48.232;10.110;2024-03-22T00:15:28;28.35;;;17.58;;
79438;SDS011;68889;48.232;10.110;2024-03-22T00:17:54;24.98;;;15.43;;
79438;SDS011;68889;48.232;10.110;2024-03-22T00:20:20;22.58;;;15.02;;
79438;SDS011;68889;48.232;10.110;2024-03-22T00:22:46;23.63;;;15.80;;
79438;SDS011;68889;48.232;10.110;2024-03-22T00:25:11;20.40;;;14.93;;
79438;SDS011;68889;48.232;10.110;2024-03-22T00:27:37;25.10;;;15.95;;
79438;SDS011;68889;48.232;10.110;2024-03-22T00:30:03;23.77;;;15.10;;
79438;SDS011;68889;48.232;10.110;2024-03-22T00:32:29;22.45;;;14.55;;
79438;SDS011;68889;48.232;10.110;2024-03-22T00:34:55;25.23;;;15.98;;
79438;SDS011;68889;48.232;10.110;2024-03-22T00:37:21;25.27;;;16.55;;
79438;SDS011;68889;48.232;10.110;2024-03-22T00:42:14;24.35;;;16.10;;
79438;SDS011;68889;48.232;10.110;2024-03-22T00:44:39;24.02;;;16.65;;
79438;SDS011;68889;48.232;10.110;2024-03-22T00:47:05;27.90;;;17.05;;
79438;SDS011;68889;48.232;10.110;2024-03-22T00:49:31;29.85;;;18.15;;
79438;SDS011;68889;48.232;10.110;2024-03-22T00:51:57;25.48;;;15.63;;
79438;SDS011;68889;48.232;10.110;2024-03-22T00:54:23;31.08;;;17.50;;
79438;SDS011;68889;48.232;10.110;2024-03-22T00:56:48;31.45;;;19.15;;
79438;SDS011;68889;48.232;10.110;2024-03-22T00:59:14;30.35;;;17.85;;
79438;SDS011;68889;48.232;10.110;2024-03-22T01:01:40;31.23;;;18.20;;
79438;SDS011;68889;48.232;10.110;2024-03-22T01:04:05;27.60;;;17.05;;
79438;SDS011;68889;48.232;10.110;2024-03-22T01:06:33;27.75;;;17.25;;
79438;SDS011;68889;48.232;10.110;2024-03-22T01:08:59;28.65;;;18.10;;
79438;SDS011;68889;48.232;10.110;2024-03-22T01:11:25;28.60;;;17.75;;
79438;SDS011;68889;48.232;10.110;2024-03-22T01:13:51;27.85;;;16.42;;
79438;SDS011;68889;48.232;10.110;2024-03-22T01:16:16;30.90;;;17.65;;
79438;SDS011;68889;48.232;10.110;2024-03-22T01:18:42;29.00;;;17.42;;
79438;SDS011;68889;48.232;10.110;2024-03-22T01:21:07;27.58;;;17.52;;
79438;SDS011;68889;48.232;10.110;2024-03-22T01:23:33;28.40;;;17.65;;
79438;SDS011;68889;48.232;10.110;2024-03-22T01:26:00;29.60;;;16.23;;
79438;SDS011;68889;48.232;10.110;2024-03-22T01:28:26;24.95;;;15.90;;
79438;SDS011;68889;48.232;10.110;2024-03-22T01:30:52;27.13;;;15.68;;
79438;SDS011;68889;48.232;10.110;2024-03-22T01:33:19;22.00;;;14.35;;
79438;SDS011;68889;48.232;10.110;2024-03-22T01:35:44;23.45;;;15.50;;
79438;SDS011;68889;48.232;10.110;2024-03-22T01:38:10;28.35;;;15.90;;
79438;SDS011;68889;48.232;10.110;2024-03-22T01:40:35;20.77;;;13.52;;
79438;SDS011;68889;48.232;10.110;2024-03-22T01:43:01;22.23;;;13.77;;
79438;SDS011;68889;48.232;10.110;2024-03-22T01:45:27;20.55;;;14.02;;
79438;SDS011;68889;48.232;10.110;2024-03-22T01:47:58;21.80;;;13.88;;
79438;SDS011;68889;48.232;10.110;2024-03-22T01:50:24;25.80;;;15.38;;
79438;SDS011;68889;48.232;10.110;2024-03-22T01:52:51;23.77;;;13.90;;
79438;SDS011;68889;48.232;10.110;2024-03-22T01:55:17;21.20;;;13.35;;
79438;SDS011;68889;48.232;10.110;2024-03-22T01:57:43;23.25;;;14.13;;
79438;SDS011;68889;48.232;10.110;2024-03-22T02:00:09;25.80;;;14.88;;
79438;SDS011;68889;48.232;10.110;2024-03-22T02:02:36;23.20;;;14.32;;
79438;SDS011;68889;48.232;10.110;2024-03-22T02:05:11;21.80;;;14.75;;
79438;SDS011;68889;48.232;10.110;2024-03-22T02:07:37;21.77;;;13.93;;
79438;SDS011;68889;48.232;10.110;2024-03-22T02:10:03;22.92;;;14.50;;
79438;SDS011;68889;48.232;10.110;2024-03-22T02:12:30;24.73;;;14.95;;
79438;SDS011;68889;48.232;10.110;2024-03-22T02:15:06;26.55;;;15.95;;
79438;SDS011;68889;48.232;10.110;2024-03-22T02:17:33;25.90;;;16.00;;
79438;SDS011;68889;48.232;10.110;2024-03-22T02:20:03;23.83;;;14.50;;
79438;SDS011;68889;48.232;10.110;2024-03-22T02:22:30;30.50;;;17.13;;
79438;SDS011;68889;48.232;10.110;2024-03-22T02:24:56;23.83;;;15.30;;
79438;SDS011;68889;48.232;10.110;2024-03-22T02:27:22;24.02;;;14.63;;
79438;SDS011;68889;48.232;10.110;2024-03-22T02:29:49;25.80;;;16.05;;
79438;SDS011;68889;48.232;10.110;2024-03-22T02:32:15;31.70;;;17.70;;
79438;SDS011;68889;48.232;10.110;2024-03-22T02:34:42;26.23;;;16.25;;
79438;SDS011;68889;48.232;10.110;2024-03-22T02:39:35;26.70;;;15.68;;
79438;SDS011;68889;48.232;10.110;2024-03-22T02:42:00;29.48;;;16.83;;
79438;SDS011;68889;48.232;10.110;2024-03-22T02:44:26;28.80;;;16.15;;
79438;SDS011;68889;48.232;10.110;2024-03-22T02:46:52;27.77;;;15.43;;
79438;SDS011;68889;48.232;10.110;2024-03-22T02:49:18;32.67;;;17.73;;
79438;SDS011;68889;48.232;10.110;2024-03-22T02:51:43;29.27;;;15.95;;
79438;SDS011;68889;48.232;10.110;2024-03-22T02:54:09;23.63;;;15.25;;
79438;SDS011;68889;48.232;10.110;2024-03-22T02:56:35;25.52;;;15.52;;
79438;SDS011;68889;48.232;10.110;2024-03-22T02:59:00;26.77;;;14.50;;
79438;SDS011;68889;48.232;10.110;2024-03-22T03:01:27;21.35;;;13.98;;
79438;SDS011;68889;48.232;10.110;2024-03-22T03:06:18;24.50;;;14.65;;
79438;SDS011;68889;48.232;10.110;2024-03-22T03:11:10;27.60;;;16.02;;
79438;SDS011;68889;48.232;10.110;2024-03-22T03:13:36;21.40;;;13.25;;
79438;SDS011;68889;48.232;10.110;2024-03-22T03:16:02;22.08;;;14.25;;
79438;SDS011;68889;48.232;10.110;2024-03-22T03:18:29;33.20;;;16.88;;
79438;SDS011;68889;48.232;10.110;2024-03-22T03:20:55;21.33;;;13.60;;
79438;SDS011;68889;48.232;10.110;2024-03-22T03:23:20;24.08;;;14.10;;
79438;SDS011;68889;48.232;10.110;2024-03-22T03:25:46;19.65;;;11.98;;
79438;SDS011;68889;48.232;10.110;2024-03-22T03:28:13;25.02;;;15.00;;
79438;SDS011;68889;48.232;10.110;2024-03-22T03:30:39;25.50;;;15.65;;
79438;SDS011;68889;48.232;10.110;2024-03-22T03:33:05;30.08;;;15.85;;
79438;SDS011;68889;48.232;10.110;2024-03-22T03:35:30;23.13;;;13.65;;
79438;SDS011;68889;48.232;10.110;2024-03-22T03:37:56;25.10;;;14.65;;
79438;SDS011;68889;48.232;10.110;2024-03-22T03:40:22;28.25;;;16.58;;
79438;SDS011;68889;48.232;10.110;2024-03-22T03:42:49;25.40;;;15.23;;
79438;SDS011;68889;48.232;10.110;2024-03-22T03:45:16;29.63;;;16.30;;
79438;SDS011;68889;48.232;10.110;2024-03-22T03:47:42;27.23;;;16.02;;
79438;SDS011;68889;48.232;10.110;2024-03-22T03:50:08;29.08;;;15.52;;
79438;SDS011;68889;48.232;10.110;2024-03-22T03:52:34;32.50;;;17.35;;
79438;SDS011;68889;48.232;10.110;2024-03-22T03:55:00;27.20;;;15.77;;
79438;SDS011;68889;48.232;10.110;2024-03-22T03:57:26;29.65;;;18.35;;
79438;SDS011;68889;48.232;10.110;2024-03-22T03:59:52;28.92;;;16.38;;
79438;SDS011;68889;48.232;10.110;2024-03-22T04:02:18;32.25;;;16.83;;
79438;SDS011;68889;48.232;10.110;2024-03-22T04:04:43;29.63;;;17.98;;
79438;SDS011;68889;48.232;10.110;2024-03-22T04:07:10;27.63;;;16.00;;
79438;SDS011;68889;48.232;10.110;2024-03-22T04:12:01;25.45;;;15.43;;
79438;SDS011;68889;48.232;10.110;2024-03-22T04:14:28;26.80;;;15.38;;
79438;SDS011;68889;48.232;10.110;2024-03-22T04:16:53;26.60;;;15.45;;
79438;SDS011;68889;48.232;10.110;2024-03-22T04:19:21;27.90;;;16.02;;
79438;SDS011;68889;48.232;10.110;2024-03-22T04:21:47;32.85;;;18.00;;
79438;SDS011;68889;48.232;10.110;2024-03-22T04:24:14;27.48;;;17.70;;
79438;SDS011;68889;48.232;10.110;2024-03-22T04:26:39;27.25;;;16.67;;
79438;SDS011;68889;48.232;10.110;2024-03-22T04:29:05;26.10;;;14.93;;
79438;SDS011;68889;48.232;10.110;2024-03-22T04:31:30;26.92;;;16.02;;
79438;SDS011;68889;48.232;10.110;2024-03-22T04:33:56;27.27;;;16.33;;
79438;SDS011;68889;48.232;10.110;2024-03-22T04:36:22;27.42;;;15.55;;
79438;SDS011;68889;48.232;10.110;2024-03-22T04:38:48;25.35;;;15.30;;
79438;SDS011;68889;48.232;10.110;2024-03-22T04:43:39;25.00;;;14.70;;
79438;SDS011;68889;48.232;10.110;2024-03-22T04:46:05;24.15;;;15.15;;
79438;SDS011;68889;48.232;10.110;2024-03-22T04:48:32;31.95;;;16.73;;
79438;SDS011;68889;48.232;10.110;2024-03-22T04:53:23;24.38;;;13.70;;
79438;SDS011;68889;48.232;10.110;2024-03-22T04:55:49;24.67;;;14.70;;
79438;SDS011;68889;48.232;10.110;2024-03-22T04:58:19;26.45;;;16.98;;
79438;SDS011;68889;48.232;10.110;2024-03-22T05:00:46;24.05;;;15.13;;
79438;SDS011;68889;48.232;10.110;2024-03-22T05:03:12;25.40;;;14.93;;
79438;SDS011;68889;48.232;10.110;2024-03-22T05:05:39;25.85;;;15.40;;
79438;SDS011;68889;48.232;10.110;2024-03-22T05:10:31;27.40;;;15.80;;
79438;SDS011;68889;48.232;10.110;2024-03-22T05:12:57;23.88;;;13.93;;
79438;SDS011;68889;48.232;10.110;2024-03-22T05:15:23;24.60;;;14.45;;
79438;SDS011;68889;48.232;10.110;2024-03-22T05:17:50;23.83;;;13.40;;
79438;SDS011;68889;48.232;10.110;2024-03-22T05:20:17;26.88;;;14.48;;
79438;SDS011;68889;48.232;10.110;2024-03-22T05:22:42;24.13;;;14.70;;
79438;SDS011;68889;48.232;10.110;2024-03-22T05:25:09;22.25;;;13.85;;
79438;SDS011;68889;48.232;10.110;2024-03-22T05:27:36;24.48;;;14.38;;
79438;SDS011;68889;48.232;10.110;2024-03-22T05:30:02;21.25;;;13.25;;
79438;SDS011;68889;48.232;10.110;2024-03-22T05:32:31;21.42;;;12.60;;
79438;SDS011;68889;48.232;10.110;2024-03-22T05:34:57;23.00;;;14.55;;
79438;SDS011;68889;48.232;10.110;2024-03-22T05:37:23;23.02;;;13.35;;
79438;SDS011;68889;48.232;10.110;2024-03-22T05:39:49;17.40;;;11.70;;
79438;SDS011;68889;48.232;10.110;2024-03-22T05:42:14;23.52;;;14.38;;
79438;SDS011;68889;48.232;10.110;2024-03-22T05:44:41;21.08;;;12.38;;
79438;SDS011;68889;48.232;10.110;2024-03-22T05:47:08;21.63;;;12.98;;
79438;SDS011;68889;48.232;10.110;2024-03-22T05:49:34;18.35;;;12.02;;
79438;SDS011;68889;48.232;10.110;2024-03-22T05:51:59;16.60;;;10.98;;
79438;SDS011;68889;48.232;10.110;2024-03-22T05:54:25;21.27;;;12.52;;
79438;SDS011;68889;48.232;10.110;2024-03-22T05:56:51;16.52;;;10.82;;
79438;SDS011;68889;48.232;10.110;2024-03-22T05:59:17;16.10;;;11.25;;
79438;SDS011;68889;48.232;10.110;2024-03-22T06:01:42;19.17;;;12.18;;
79438;SDS011;68889;48.232;10.110;2024-03-22T06:04:08;18.30;;;11.80;;
79438;SDS011;68889;48.232;10.110;2024-03-22T06:06:34;16.83;;;11.73;;
79438;SDS011;68889;48.232;10.110;2024-03-22T06:09:01;16.23;;;11.38;;
79438;SDS011;68889;48.232;10.110;2024-03-22T06:11:35;18.48;;;12.25;;
79438;SDS011;68889;48.232;10.110;2024-03-22T06:14:00;20.10;;;12.00;;
79438;SDS011;68889;48.232;10.110;2024-03-22T06:16:26;20.90;;;11.70;;
79438;SDS011;68889;48.232;10.110;2024-03-22T06:18:52;19.27;;;12.20;;
79438;SDS011;68889;48.232;10.110;2024-03-22T06:21:17;18.27;;;12.10;;
79438;SDS011;68889;48.232;10.110;2024-03-22T06:23:51;19.60;;;12.75;;
79438;SDS011;68889;48.232;10.110;2024-03-22T06:26:17;16.15;;;10.73;;
79438;SDS011;68889;48.232;10.110;2024-03-22T06:28:43;18.42;;;12.25;;
79438;SDS011;68889;48.232;10.110;2024-03-22T06:31:09;23.38;;;13.90;;
79438;SDS011;68889;48.232;10.110;2024-03-22T06:33:34;19.40;;;12.98;;
79438;SDS011;68889;48.232;10.110;2024-03-22T06:36:00;18.88;;;12.20;;
79438;SDS011;68889;48.232;10.110;2024-03-22T06:38:28;16.83;;;11.45;;
79438;SDS011;68889;48.232;10.110;2024-03-22T06:40:53;17.45;;;11.05;;
79438;SDS011;68889;48.232;10.110;2024-03-22T06:43:19;15.40;;;10.40;;
79438;SDS011;68889;48.232;10.110;2024-03-22T06:45:45;15.63;;;10.85;;
79438;SDS011;68889;48.232;10.110;2024-03-22T06:48:12;16.77;;;11.55;;
79438;SDS011;68889;48.232;10.110;2024-03-22T06:50:39;16.95;;;11.35;;
79438;SDS011;68889;48.232;10.110;2024-03-22T06:53:06;18.88;;;11.32;;
79438;SDS011;68889;48.232;10.110;2024-03-22T06:55:32;17.75;;;10.80;;
79438;SDS011;68889;48.232;10.110;2024-03-22T06:57:57;16.30;;;10.95;;
79438;SDS011;68889;48.232;10.110;2024-03-22T07:00:23;16.20;;;10.70;;
79438;SDS011;68889;48.232;10.110;2024-03-22T07:02:50;15.13;;;10.20;;
79438;SDS011;68889;48.232;10.110;2024-03-22T07:05:16;15.38;;;10.27;;
79438;SDS011;68889;48.232;10.110;2024-03-22T07:07:41;13.27;;;10.25;;
79438;SDS011;68889;48.232;10.110;2024-03-22T07:10:07;14.88;;;10.10;;
79438;SDS011;68889;48.232;10.110;2024-03-22T07:12:33;13.55;;;9.60;;
79438;SDS011;68889;48.232;10.110;2024-03-22T07:14:59;14.48;;;10.25;;
79438;SDS011;68889;48.232;10.110;2024-03-22T07:17:26;12.93;;;9.35;;
79438;SDS011;68889;48.232;10.110;2024-03-22T07:19:52;14.52;;;9.65;;
79438;SDS011;68889;48.232;10.110;2024-03-22T07:24:44;13.77;;;9.20;;
79438;SDS011;68889;48.232;10.110;2024-03-22T07:27:10;12.43;;;8.50;;
79438;SDS011;68889;48.232;10.110;2024-03-22T07:32:02;12.07;;;8.50;;
79438;SDS011;68889;48.232;10.110;2024-03-22T07:34:28;14.20;;;9.02;;
79438;SDS011;68889;48.232;10.110;2024-03-22T07:36:54;11.50;;;8.85;;
79438;SDS011;68889;48.232;10.110;2024-03-22T07:39:20;12.45;;;9.13;;
79438;SDS011;68889;48.232;10.110;2024-03-22T07:41:46;10.82;;;8.95;;
79438;SDS011;68889;48.232;10.110;2024-03-22T07:44:12;10.95;;;7.93;;
79438;SDS011;68889;48.232;10.110;2024-03-22T07:46:37;12.07;;;8.50;;
79438;SDS011;68889;48.232;10.110;2024-03-22T07:49:03;11.55;;;8.75;;
79438;SDS011;68889;48.232;10.110;2024-03-22T07:51:29;10.25;;;7.90;;
79438;SDS011;68889;48.232;10.110;2024-03-22T07:53:55;10.68;;;7.75;;
79438;SDS011;68889;48.232;10.110;2024-03-22T07:56:21;9.70;;;8.10;;
79438;SDS011;68889;48.232;10.110;2024-03-22T07:58:47;8.75;;;7.43;;
79438;SDS011;68889;48.232;10.110;2024-03-22T08:01:12;9.70;;;6.70;;
79438;SDS011;68889;48.232;10.110;2024-03-22T08:03:38;9.75;;;6.90;;
79438;SDS011;68889;48.232;10.110;2024-03-22T08:06:04;8.27;;;6.45;;
79438;SDS011;68889;48.232;10.110;2024-03-22T08:08:30;7.72;;;5.72;;
79438;SDS011;68889;48.232;10.110;2024-03-22T08:10:55;7.85;;;6.00;;
79438;SDS011;68889;48.232;10.110;2024-03-22T08:13:21;10.60;;;5.95;;
79438;SDS011;68889;48.232;10.110;2024-03-22T08:15:47;7.70;;;5.82;;
79438;SDS011;68889;48.232;10.110;2024-03-22T08:18:12;7.22;;;5.65;;
79438;SDS011;68889;48.232;10.110;2024-03-22T08:20:38;9.60;;;5.95;;
79438;SDS011;68889;48.232;10.110;2024-03-22T08:23:05;7.53;;;5.88;;
79438;SDS011;68889;48.232;10.110;2024-03-22T08:25:31;8.93;;;5.85;;
79438;SDS011;68889;48.232;10.110;2024-03-22T08:27:57;8.32;;;6.43;;
79438;SDS011;68889;48.232;10.110;2024-03-22T08:30:23;7.63;;;5.75;;
79438;SDS011;68889;48.232;10.110;2024-03-22T08:32:49;7.88;;;6.05;;
79438;SDS011;68889;48.232;10.110;2024-03-22T08:35:14;8.65;;;6.38;;
79438;SDS011;68889;48.232;10.110;2024-03-22T08:37:41;9.18;;;6.30;;
79438;SDS011;68889;48.232;10.110;2024-03-22T08:40:07;7.97;;;6.47;;
79438;SDS011;68889;48.232;10.110;2024-03-22T08:42:35;8.88;;;6.40;;
79438;SDS011;68889;48.232;10.110;2024-03-22T08:45:02;8.60;;;5.63;;
79438;SDS011;68889;48.232;10.110;2024-03-22T08:47:29;7.55;;;6.20;;
79438;SDS011;68889;48.232;10.110;2024-03-22T08:49:55;7.60;;;5.90;;
79438;SDS011;68889;48.232;10.110;2024-03-22T08:52:23;8.75;;;5.43;;
79438;SDS011;68889;48.232;10.110;2024-03-22T08:54:50;11.75;;;5.93;;
79438;SDS011;68889;48.232;10.110;2024-03-22T08:57:18;8.35;;;5.50;;
79438;SDS011;68889;48.232;10.110;2024-03-22T08:59:44;7.35;;;6.03;;
79438;SDS011;68889;48.232;10.110;2024-03-22T09:02:10;7.55;;;5.35;;
79438;SDS011;68889;48.232;10.110;2024-03-22T09:04:36;6.70;;;5.13;;
79438;SDS011;68889;48.232;10.110;2024-03-22T09:07:03;7.45;;;5.47;;
79438;SDS011;68889;48.232;10.110;2024-03-22T09:11:54;7.57;;;5.60;;
79438;SDS011;68889;48.232;10.110;2024-03-22T09:14:20;8.63;;;5.70;;
79438;SDS011;68889;48.232;10.110;2024-03-22T09:16:47;7.78;;;5.50;;
79438;SDS011;68889;48.232;10.110;2024-03-22T09:19:16;7.90;;;5.32;;
79438;SDS011;68889;48.232;10.110;2024-03-22T09:21:42;7.53;;;5.30;;
79438;SDS011;68889;48.232;10.110;2024-03-22T09:24:08;6.43;;;4.78;;
79438;SDS011;68889;48.232;10.110;2024-03-22T09:26:33;6.85;;;5.22;;
79438;SDS011;68889;48.232;10.110;2024-03-22T09:28:59;7.38;;;4.95;;
79438;SDS011;68889;48.232;10.110;2024-03-22T09:31:24;7.10;;;5.03;;
79438;SDS011;68889;48.232;10.110;2024-03-22T09:33:50;6.38;;;5.38;;
79438;SDS011;68889;48.232;10.110;2024-03-22T09:36:17;6.30;;;5.13;;
79438;SDS011;68889;48.232;10.110;2024-03-22T09:38:42;7.35;;;5.35;;
79438;SDS011;68889;48.232;10.110;2024-03-22T09:43:34;8.75;;;5.45;;
79438;SDS011;68889;48.232;10.110;2024-03-22T09:46:00;6.15;;;5.25;;
79438;SDS011;68889;48.232;10.110;2024-03-22T09:48:27;9.20;;;5.15;;
79438;SDS011;68889;48.232;10.110;2024-03-22T09:50:54;6.90;;;4.85;;
79438;SDS011;68889;48.232;10.110;2024-03-22T09:53:20;9.40;;;5.88;;
79438;SDS011;68889;48.232;10.110;2024-03-22T09:55:47;5.70;;;4.78;;
79438;SDS011;68889;48.232;10.110;2024-03-22T09:58:14;8.40;;;5.60;;
79438;SDS011;68889;48.232;10.110;2024-03-22T10:00:42;9.27;;;6.25;;
79438;SDS011;68889;48.232;10.110;2024-03-22T10:03:09;7.30;;;5.40;;
79438;SDS011;68889;48.232;10.110;2024-03-22T10:05:35;5.55;;;4.20;;
79438;SDS011;68889;48.232;10.110;2024-03-22T10:08:02;6.18;;;4.40;;
79438;SDS011;68889;48.232;10.110;2024-03-22T10:10:31;6.18;;;4.88;;
79438;SDS011;68889;48.232;10.110;2024-03-22T10:13:00;6.85;;;5.00;;
79438;SDS011;68889;48.232;10.110;2024-03-22T10:15:26;5.43;;;4.15;;
79438;SDS011;68889;48.232;10.110;2024-03-22T10:17:52;8.30;;;4.13;;
79438;SDS011;68889;48.232;10.110;2024-03-22T10:20:21;6.03;;;4.40;;
79438;SDS011;68889;48.232;10.110;2024-03-22T10:22:58;6.28;;;4.50;;
79438;SDS011;68889;48.232;10.110;2024-03-22T10:25:27;6.78;;;4.68;;
79438;SDS011;68889;48.232;10.110;2024-03-22T10:27:54;5.60;;;5.00;;
79438;SDS011;68889;48.232;10.110;2024-03-22T10:30:20;7.82;;;5.22;;
79438;SDS011;68889;48.232;10.110;2024-03-22T10:32:48;7.68;;;4.72;;
79438;SDS011;68889;48.232;10.110;2024-03-22T10:35:14;5.63;;;4.30;;
79438;SDS011;68889;48.232;10.110;2024-03-22T10:37:41;5.65;;;4.10;;
79438;SDS011;68889;48.232;10.110;2024-03-22T10:40:07;8.02;;;4.72;;
79438;SDS011;68889;48.232;10.110;2024-03-22T10:42:36;6.90;;;5.47;;
79438;SDS011;68889;48.232;10.110;2024-03-22T10:45:06;7.55;;;5.53;;
79438;SDS011;68889;48.232;10.110;2024-03-22T10:47:34;6.57;;;4.43;;
79438;SDS011;68889;48.232;10.110;2024-03-22T10:50:05;7.55;;;4.65;;
79438;SDS011;68889;48.232;10.110;2024-03-22T10:52:40;6.15;;;4.40;;
79438;SDS011;68889;48.232;10.110;2024-03-22T10:55:32;6.30;;;4.35;;
79438;SDS011;68889;48.232;10.110;2024-03-22T10:57:59;5.68;;;4.25;;
79438;SDS011;68889;48.232;10.110;2024-03-22T11:00:34;5.57;;;4.47;;
79438;SDS011;68889;48.232;10.110;2024-03-22T11:03:02;6.18;;;4.22;;
79438;SDS011;68889;48.232;10.110;2024-03-22T11:05:28;6.93;;;4.63;;
79438;SDS011;68889;48.232;10.110;2024-03-22T11:10:29;7.68;;;4.65;;
79438;SDS011;68889;48.232;10.110;2024-03-22T11:12:55;5.10;;;3.92;;
79438;SDS011;68889;48.232;10.110;2024-03-22T11:15:25;5.07;;;3.17;;
79438;SDS011;68889;48.232;10.110;2024-03-22T11:20:16;5.95;;;3.53;;
79438;SDS011;68889;48.232;10.110;2024-03-22T11:25:08;5.57;;;3.50;;
79438;SDS011;68889;48.232;10.110;2024-03-22T11:27:34;5.68;;;3.63;;
79438;SDS011;68889;48.232;10.110;2024-03-22T11:30:00;5.63;;;4.32;;
79438;SDS011;68889;48.232;10.110;2024-03-22T11:34:53;5.10;;;3.92;;
79438;SDS011;68889;48.232;10.110;2024-03-22T11:39:44;5.85;;;4.07;;
79438;SDS011;68889;48.232;10.110;2024-03-22T11:44:37;5.78;;;4.20;;
79438;SDS011;68889;48.232;10.110;2024-03-22T11:47:05;6.25;;;4.10;;
79438;SDS011;68889;48.232;10.110;2024-03-22T11:51:56;4.10;;;3.30;;
79438;SDS011;68889;48.232;10.110;2024-03-22T11:56:51;7.10;;;4.70;;
79438;SDS011;68889;48.232;10.110;2024-03-22T12:01:46;4.68;;;3.50;;
79438;SDS011;68889;48.232;10.110;2024-03-22T12:04:12;6.35;;;3.38;;
79438;SDS011;68889;48.232;10.110;2024-03-22T12:06:44;6.22;;;4.00;;
79438;SDS011;68889;48.232;10.110;2024-03-22T12:09:11;4.82;;;3.60;;
79438;SDS011;68889;48.232;10.110;2024-03-22T12:11:38;5.78;;;3.70;;
79438;SDS011;68889;48.232;10.110;2024-03-22T12:14:04;6.43;;;3.13;;
79438;SDS011;68889;48.232;10.110;2024-03-22T12:18:56;3.80;;;3.40;;
79438;SDS011;68889;48.232;10.110;2024-03-22T12:21:21;4.63;;;3.33;;
79438;SDS011;68889;48.232;10.110;2024-03-22T12:26:12;3.72;;;2.58;;
79438;SDS011;68889;48.232;10.110;2024-03-22T12:31:04;6.68;;;2.88;;
79438;SDS011;68889;48.232;10.110;2024-03-22T12:35:55;5.20;;;3.20;;
79438;SDS011;68889;48.232;10.110;2024-03-22T12:40:47;7.45;;;2.85;;
79438;SDS011;68889;48.232;10.110;2024-03-22T12:43:13;6.35;;;2.53;;
79438;SDS011;68889;48.232;10.110;2024-03-22T12:48:05;4.70;;;2.58;;
79438;SDS011;68889;48.232;10.110;2024-03-22T12:52:56;3.80;;;2.10;;
79438;SDS011;68889;48.232;10.110;2024-03-22T12:55:22;4.20;;;2.35;;
79438;SDS011;68889;48.232;10.110;2024-03-22T12:57:48;2.67;;;1.88;;
79438;SDS011;68889;48.232;10.110;2024-03-22T13:02:43;3.38;;;1.63;;
79438;SDS011;68889;48.232;10.110;2024-03-22T13:05:10;3.53;;;1.80;;
79438;SDS011;68889;48.232;10.110;2024-03-22T13:07:38;2.70;;;1.42;;
79438;SDS011;68889;48.232;10.110;2024-03-22T13:10:04;3.00;;;1.60;;
79438;SDS011;68889;48.232;10.110;2024-03-22T13:12:30;3.42;;;1.60;;
79438;SDS011;68889;48.232;10.110;2024-03-22T13:17:28;2.47;;;1.50;;
79438;SDS011;68889;48.232;10.110;2024-03-22T13:22:19;4.18;;;1.70;;
79438;SDS011;68889;48.232;10.110;2024-03-22T13:27:12;2.88;;;1.92;;
79438;SDS011;68889;48.232;10.110;2024-03-22T13:29:41;4.75;;;1.95;;
79438;SDS011;68889;48.232;10.110;2024-03-22T13:32:07;3.22;;;1.50;;
79438;SDS011;68889;48.232;10.110;2024-03-22T13:34:36;2.35;;;1.60;;
79438;SDS011;68889;48.232;10.110;2024-03-22T13:37:03;3.20;;;1.65;;
79438;SDS011;68889;48.232;10.110;2024-03-22T13:39:29;2.97;;;1.70;;
79438;SDS011;68889;48.232;10.110;2024-03-22T13:41:55;3.13;;;2.00;;
79438;SDS011;68889;48.232;10.110;2024-03-22T13:44:21;3.63;;;1.60;;
79438;SDS011;68889;48.232;10.110;2024-03-22T13:46:49;2.88;;;1.65;;
79438;SDS011;68889;48.232;10.110;2024-03-22T13:49:19;2.28;;;1.50;;
79438;SDS011;68889;48.232;10.110;2024-03-22T13:51:48;3.50;;;1.70;;
79438;SDS011;68889;48.232;10.110;2024-03-22T13:54:14;3.53;;;1.58;;
79438;SDS011;68889;48.232;10.110;2024-03-22T13:56:41;3.10;;;1.58;;
79438;SDS011;68889;48.232;10.110;2024-03-22T13:59:07;2.13;;;1.45;;
79438;SDS011;68889;48.232;10.110;2024-03-22T14:01:34;3.30;;;1.45;;
79438;SDS011;68889;48.232;10.110;2024-03-22T14:04:02;3.78;;;1.40;;
79438;SDS011;68889;48.232;10.110;2024-03-22T14:06:31;2.25;;;1.00;;
79438;SDS011;68889;48.232;10.110;2024-03-22T14:08:57;1.77;;;1.30;;
79438;SDS011;68889;48.232;10.110;2024-03-22T14:11:27;2.00;;;1.00;;
79438;SDS011;68889;48.232;10.110;2024-03-22T14:13:55;3.20;;;1.20;;
79438;SDS011;68889;48.232;10.110;2024-03-22T14:16:24;2.58;;;1.10;;
79438;SDS011;68889;48.232;10.110;2024-03-22T14:18:50;1.98;;;1.38;;
79438;SDS011;68889;48.232;10.110;2024-03-22T14:21:16;3.55;;;1.63;;
79438;SDS011;68889;48.232;10.110;2024-03-22T14:23:47;3.13;;;1.48;;
79438;SDS011;68889;48.232;10.110;2024-03-22T14:26:15;3.60;;;1.60;;
79438;SDS011;68889;48.232;10.110;2024-03-22T14:28:42;2.08;;;1.40;;
79438;SDS011;68889;48.232;10.110;2024-03-22T14:31:08;2.17;;;1.38;;
79438;SDS011;68889;48.232;10.110;2024-03-22T14:33:37;2.88;;;1.45;;
79438;SDS011;68889;48.232;10.110;2024-03-22T14:36:04;3.70;;;1.25;;
79438;SDS011;68889;48.232;10.110;2024-03-22T14:38:31;3.40;;;1.30;;
79438;SDS011;68889;48.232;10.110;2024-03-22T14:40:57;2.10;;;1.50;;
79438;SDS011;68889;48.232;10.110;2024-03-22T14:43:24;2.50;;;1.58;;
79438;SDS011;68889;48.232;10.110;2024-03-22T14:45:50;2.47;;;1.23;;
79438;SDS011;68889;48.232;10.110;2024-03-22T14:48:22;3.80;;;1.45;;
79438;SDS011;68889;48.232;10.110;2024-03-22T14:50:49;2.60;;;1.70;;
79438;SDS011;68889;48.232;10.110;2024-03-22T14:53:18;3.55;;;1.45;;
79438;SDS011;68889;48.232;10.110;2024-03-22T14:55:54;2.85;;;1.42;;
79438;SDS011;68889;48.232;10.110;2024-03-22T14:58:27;3.83;;;1.50;;
79438;SDS011;68889;48.232;10.110;2024-03-22T15:00:53;3.08;;;1.70;;
79438;SDS011;68889;48.232;10.110;2024-03-22T15:03:20;3.22;;;1.50;;
79438;SDS011;68889;48.232;10.110;2024-03-22T15:05:47;4.75;;;1.73;;
79438;SDS011;68889;48.232;10.110;2024-03-22T15:08:14;2.38;;;1.33;;
79438;SDS011;68889;48.232;10.110;2024-03-22T15:10:41;2.47;;;1.60;;
79438;SDS011;68889;48.232;10.110;2024-03-22T15:13:07;1.95;;;1.30;;
79438;SDS011;68889;48.232;10.110;2024-03-22T15:17:59;2.95;;;1.52;;
79438;SDS011;68889;48.232;10.110;2024-03-22T15:22:52;3.97;;;1.88;;
79438;SDS011;68889;48.232;10.110;2024-03-22T15:25:18;2.72;;;1.67;;
79438;SDS011;68889;48.232;10.110;2024-03-22T15:27:44;2.70;;;1.88;;
79438;SDS011;68889;48.232;10.110;2024-03-22T15:32:36;2.40;;;1.42;;
79438;SDS011;68889;48.232;10.110;2024-03-22T15:35:02;2.03;;;1.33;;
79438;SDS011;68889;48.232;10.110;2024-03-22T15:37:29;2.20;;;1.40;;
79438;SDS011;68889;48.232;10.110;2024-03-22T15:42:20;2.90;;;1.70;;
79438;SDS011;68889;48.232;10.110;2024-03-22T15:47:12;3.63;;;1.80;;